sensor_id;sensor_type;location;lat;lon;timestamp;P1;durP1;ratioP1;P2;durP2;ratioP2
32810;SDS011;65470;47.324;8.548;2023-01-16T00:00:49;2.45;;;1.92;;
32810;SDS011;65470;47.324;8.548;2023-01-16T00:03:15;2.10;;;1.90;;
32810;SDS011;65470;47.324;8.548;2023-01-16T00:05:40;2.08;;;1.77;;
32810;SDS011;65470;47.324;8.548;2023-01-16T00:08:07;1.88;;;1.77;;
32810;SDS011;65470;47.324;8.548;2023-01-16T00:10:33;1.80;;;1.70;;
32810;SDS011;65470;47.324;8.548;2023-01-16T00:12:59;2.20;;;2.00;;
32810;SDS011;65470;47.324;8.548;2023-01-16T00:15:24;1.85;;;1.70;;
32810;SDS011;65470;47.324;8.548;2023-01-16T00:17:50;1.50;;;1.40;;
32810;SDS011;65470;47.324;8.548;2023-01-16T00:20:16;2.58;;;1.75;;
32810;SDS011;65470;47.324;8.548;2023-01-16T00:22:42;2.10;;;1.77;;
32810;SDS011;65470;47.324;8.548;2023-01-16T00:25:08;2.30;;;1.70;;
32810;SDS011;65470;47.324;8.548;2023-01-16T00:27:34;2.85;;;1.85;;
32810;SDS011;65470;47.324;8.548;2023-01-16T00:29:59;1.95;;;1.80;;
32810;SDS011;65470;47.324;8.548;2023-01-16T00:32:25;3.40;;;1.92;;
32810;SDS011;65470;47.324;8.548;2023-01-16T00:34:51;2.30;;;2.03;;
32810;SDS011;65470;47.324;8.548;2023-01-16T00:37:16;3.03;;;1.80;;
32810;SDS011;65470;47.324;8.548;2023-01-16T00:39:42;3.65;;;1.73;;
32810;SDS011;65470;47.324;8.548;2023-01-16T00:42:08;1.85;;;1.70;;
32810;SDS011;65470;47.324;8.548;2023-01-16T00:44:33;2.75;;;1.83;;
32810;SDS011;65470;47.324;8.548;2023-01-16T00:46:59;3.05;;;1.85;;
32810;SDS011;65470;47.324;8.548;2023-01-16T00:49:25;2.35;;;1.85;;
32810;SDS011;65470;47.324;8.548;2023-01-16T00:51:50;2.78;;;2.15;;
32810;SDS011;65470;47.324;8.548;2023-01-16T00:54:17;2.33;;;2.05;;
32810;SDS011;65470;47.324;8.548;2023-01-16T00:56:43;2.15;;;1.90;;
32810;SDS011;65470;47.324;8.548;2023-01-16T00:59:09;3.78;;;2.33;;
32810;SDS011;65470;47.324;8.548;2023-01-16T01:01:35;3.03;;;2.15;;
32810;SDS011;65470;47.324;8.548;2023-01-16T01:04:02;3.28;;;2.30;;
32810;SDS011;65470;47.324;8.548;2023-01-16T01:06:28;2.10;;;1.90;;
32810;SDS011;65470;47.324;8.548;2023-01-16T01:08:54;2.30;;;1.92;;
32810;SDS011;65470;47.324;8.548;2023-01-16T01:11:20;3.22;;;2.03;;
32810;SDS011;65470;47.324;8.548;2023-01-16T01:13:45;2.40;;;2.17;;
32810;SDS011;65470;47.324;8.548;2023-01-16T01:16:12;3.60;;;2.22;;
32810;SDS011;65470;47.324;8.548;2023-01-16T01:18:38;6.30;;;1.85;;
32810;SDS011;65470;47.324;8.548;2023-01-16T01:21:04;2.25;;;2.05;;
32810;SDS011;65470;47.324;8.548;2023-01-16T01:23:29;2.08;;;1.88;;
32810;SDS011;65470;47.324;8.548;2023-01-16T01:25:55;2.88;;;1.80;;
32810;SDS011;65470;47.324;8.548;2023-01-16T01:28:21;3.05;;;2.08;;
32810;SDS011;65470;47.324;8.548;2023-01-16T01:30:46;2.80;;;2.05;;
32810;SDS011;65470;47.324;8.548;2023-01-16T01:33:12;2.08;;;1.88;;
32810;SDS011;65470;47.324;8.548;2023-01-16T01:35:38;2.30;;;1.85;;
32810;SDS011;65470;47.324;8.548;2023-01-16T01:38:03;2.40;;;1.50;;
32810;SDS011;65470;47.324;8.548;2023-01-16T01:40:29;2.35;;;1.70;;
32810;SDS011;65470;47.324;8.548;2023-01-16T01:42:57;1.48;;;1.35;;
32810;SDS011;65470;47.324;8.548;2023-01-16T01:45:26;1.80;;;1.55;;
32810;SDS011;65470;47.324;8.548;2023-01-16T01:47:54;1.80;;;1.50;;
32810;SDS011;65470;47.324;8.548;2023-01-16T01:52:59;2.50;;;1.63;;
32810;SDS011;65470;47.324;8.548;2023-01-16T01:55:28;1.48;;;1.38;;
32810;SDS011;65470;47.324;8.548;2023-01-16T01:57:56;1.63;;;1.40;;
32810;SDS011;65470;47.324;8.548;2023-01-16T02:00:25;1.65;;;1.55;;
32810;SDS011;65470;47.324;8.548;2023-01-16T02:03:10;1.83;;;1.60;;
32810;SDS011;65470;47.324;8.548;2023-01-16T02:05:44;1.98;;;1.60;;
32810;SDS011;65470;47.324;8.548;2023-01-16T02:08:14;1.40;;;1.30;;
32810;SDS011;65470;47.324;8.548;2023-01-16T02:10:47;2.13;;;1.45;;
32810;SDS011;65470;47.324;8.548;2023-01-16T02:13:16;2.70;;;1.83;;
32810;SDS011;65470;47.324;8.548;2023-01-16T02:15:42;2.05;;;1.50;;
32810;SDS011;65470;47.324;8.548;2023-01-16T02:18:34;1.83;;;1.35;;
32810;SDS011;65470;47.324;8.548;2023-01-16T02:30:14;1.42;;;1.33;;
32810;SDS011;65470;47.324;8.548;2023-01-16T02:35:42;1.90;;;1.60;;
32810;SDS011;65470;47.324;8.548;2023-01-16T02:38:34;2.55;;;1.48;;
32810;SDS011;65470;47.324;8.548;2023-01-16T02:41:30;2.38;;;2.08;;
32810;SDS011;65470;47.324;8.548;2023-01-16T02:46:48;2.83;;;1.80;;
32810;SDS011;65470;47.324;8.548;2023-01-16T02:49:24;2.22;;;2.03;;
32810;SDS011;65470;47.324;8.548;2023-01-16T02:52:02;3.55;;;2.05;;
32810;SDS011;65470;47.324;8.548;2023-01-16T02:54:41;4.53;;;2.28;;
32810;SDS011;65470;47.324;8.548;2023-01-16T02:57:20;2.20;;;2.00;;
32810;SDS011;65470;47.324;8.548;2023-01-16T02:59:48;2.35;;;1.95;;
32810;SDS011;65470;47.324;8.548;2023-01-16T03:05:37;3.88;;;2.00;;
32810;SDS011;65470;47.324;8.548;2023-01-16T03:11:01;3.35;;;1.67;;
32810;SDS011;65470;47.324;8.548;2023-01-16T03:13:47;2.10;;;1.80;;
32810;SDS011;65470;47.324;8.548;2023-01-16T03:22:33;2.25;;;1.95;;
32810;SDS011;65470;47.324;8.548;2023-01-16T03:25:26;1.60;;;1.50;;
32810;SDS011;65470;47.324;8.548;2023-01-16T03:33:25;1.48;;;1.38;;
32810;SDS011;65470;47.324;8.548;2023-01-16T03:36:15;1.83;;;1.58;;
32810;SDS011;65470;47.324;8.548;2023-01-16T03:38:48;1.42;;;1.33;;
32810;SDS011;65470;47.324;8.548;2023-01-16T03:41:17;1.55;;;1.45;;
32810;SDS011;65470;47.324;8.548;2023-01-16T03:43:49;1.58;;;1.48;;
32810;SDS011;65470;47.324;8.548;2023-01-16T03:46:20;1.70;;;1.60;;
32810;SDS011;65470;47.324;8.548;2023-01-16T03:51:24;2.10;;;1.45;;
32810;SDS011;65470;47.324;8.548;2023-01-16T03:54:02;2.03;;;1.55;;
32810;SDS011;65470;47.324;8.548;2023-01-16T03:59:05;2.67;;;1.33;;
32810;SDS011;65470;47.324;8.548;2023-01-16T04:01:34;1.80;;;1.17;;
32810;SDS011;65470;47.324;8.548;2023-01-16T04:04:27;1.30;;;1.20;;
32810;SDS011;65470;47.324;8.548;2023-01-16T04:07:03;2.65;;;1.40;;
32810;SDS011;65470;47.324;8.548;2023-01-16T04:09:35;1.63;;;1.30;;
32810;SDS011;65470;47.324;8.548;2023-01-16T04:12:10;1.30;;;1.20;;
32810;SDS011;65470;47.324;8.548;2023-01-16T04:14:39;1.70;;;1.42;;
32810;SDS011;65470;47.324;8.548;2023-01-16T04:17:06;1.77;;;1.30;;
32810;SDS011;65470;47.324;8.548;2023-01-16T04:19:32;2.17;;;1.20;;
32810;SDS011;65470;47.324;8.548;2023-01-16T04:22:03;1.40;;;1.30;;
32810;SDS011;65470;47.324;8.548;2023-01-16T04:24:31;1.67;;;1.20;;
32810;SDS011;65470;47.324;8.548;2023-01-16T04:26:58;1.38;;;1.27;;
32810;SDS011;65470;47.324;8.548;2023-01-16T04:29:23;1.98;;;1.20;;
32810;SDS011;65470;47.324;8.548;2023-01-16T04:31:50;2.58;;;0.90;;
32810;SDS011;65470;47.324;8.548;2023-01-16T04:34:16;1.65;;;1.10;;
32810;SDS011;65470;47.324;8.548;2023-01-16T04:36:42;1.33;;;1.13;;
32810;SDS011;65470;47.324;8.548;2023-01-16T04:39:07;1.40;;;0.80;;
32810;SDS011;65470;47.324;8.548;2023-01-16T04:41:33;2.35;;;1.00;;
32810;SDS011;65470;47.324;8.548;2023-01-16T04:44:05;1.23;;;1.10;;
32810;SDS011;65470;47.324;8.548;2023-01-16T04:46:32;0.70;;;0.70;;
32810;SDS011;65470;47.324;8.548;2023-01-16T04:48:58;2.60;;;1.10;;
32810;SDS011;65470;47.324;8.548;2023-01-16T04:51:24;0.70;;;0.70;;
32810;SDS011;65470;47.324;8.548;2023-01-16T04:53:50;1.27;;;1.02;;
32810;SDS011;65470;47.324;8.548;2023-01-16T04:56:16;0.85;;;0.75;;
32810;SDS011;65470;47.324;8.548;2023-01-16T04:58:41;0.98;;;0.85;;
32810;SDS011;65470;47.324;8.548;2023-01-16T05:01:07;1.30;;;0.90;;
32810;SDS011;65470;47.324;8.548;2023-01-16T05:03:33;2.05;;;1.17;;
32810;SDS011;65470;47.324;8.548;2023-01-16T05:05:58;0.80;;;0.80;;
32810;SDS011;65470;47.324;8.548;2023-01-16T05:08:24;1.27;;;1.00;;
32810;SDS011;65470;47.324;8.548;2023-01-16T05:10:53;0.80;;;0.80;;
32810;SDS011;65470;47.324;8.548;2023-01-16T05:13:19;1.13;;;1.00;;
32810;SDS011;65470;47.324;8.548;2023-01-16T05:15:45;1.27;;;1.00;;
32810;SDS011;65470;47.324;8.548;2023-01-16T05:18:10;1.10;;;0.93;;
32810;SDS011;65470;47.324;8.548;2023-01-16T05:20:37;0.73;;;0.70;;
32810;SDS011;65470;47.324;8.548;2023-01-16T05:23:03;1.77;;;0.90;;
32810;SDS011;65470;47.324;8.548;2023-01-16T05:25:29;0.90;;;0.75;;
32810;SDS011;65470;47.324;8.548;2023-01-16T05:27:55;0.82;;;0.80;;
32810;SDS011;65470;47.324;8.548;2023-01-16T05:30:20;0.80;;;0.80;;
32810;SDS011;65470;47.324;8.548;2023-01-16T05:32:46;0.85;;;0.80;;
32810;SDS011;65470;47.324;8.548;2023-01-16T05:35:13;0.90;;;0.90;;
32810;SDS011;65470;47.324;8.548;2023-01-16T05:37:39;0.98;;;0.65;;
32810;SDS011;65470;47.324;8.548;2023-01-16T05:40:05;0.75;;;0.63;;
32810;SDS011;65470;47.324;8.548;2023-01-16T05:42:31;0.65;;;0.65;;
32810;SDS011;65470;47.324;8.548;2023-01-16T05:44:56;1.05;;;0.90;;
32810;SDS011;65470;47.324;8.548;2023-01-16T05:47:22;0.70;;;0.70;;
32810;SDS011;65470;47.324;8.548;2023-01-16T05:49:47;1.85;;;0.90;;
32810;SDS011;65470;47.324;8.548;2023-01-16T05:52:13;1.08;;;1.00;;
32810;SDS011;65470;47.324;8.548;2023-01-16T05:54:39;0.70;;;0.70;;
32810;SDS011;65470;47.324;8.548;2023-01-16T05:57:05;0.65;;;0.65;;
32810;SDS011;65470;47.324;8.548;2023-01-16T05:59:30;1.15;;;0.80;;
32810;SDS011;65470;47.324;8.548;2023-01-16T06:01:56;0.80;;;0.80;;
32810;SDS011;65470;47.324;8.548;2023-01-16T06:04:22;0.80;;;0.80;;
32810;SDS011;65470;47.324;8.548;2023-01-16T06:06:48;0.80;;;0.80;;
32810;SDS011;65470;47.324;8.548;2023-01-16T06:09:14;0.82;;;0.65;;
32810;SDS011;65470;47.324;8.548;2023-01-16T06:11:40;1.00;;;0.77;;
32810;SDS011;65470;47.324;8.548;2023-01-16T06:14:06;2.05;;;1.00;;
32810;SDS011;65470;47.324;8.548;2023-01-16T06:16:32;3.03;;;0.85;;
32810;SDS011;65470;47.324;8.548;2023-01-16T06:18:58;1.02;;;1.00;;
32810;SDS011;65470;47.324;8.548;2023-01-16T06:21:24;3.47;;;0.88;;
32810;SDS011;65470;47.324;8.548;2023-01-16T06:23:49;1.08;;;0.90;;
32810;SDS011;65470;47.324;8.548;2023-01-16T06:26:15;0.77;;;0.77;;
32810;SDS011;65470;47.324;8.548;2023-01-16T06:28:41;0.70;;;0.70;;
32810;SDS011;65470;47.324;8.548;2023-01-16T06:31:07;1.15;;;0.85;;
32810;SDS011;65470;47.324;8.548;2023-01-16T06:33:33;1.27;;;1.15;;
32810;SDS011;65470;47.324;8.548;2023-01-16T06:35:59;3.20;;;0.95;;
32810;SDS011;65470;47.324;8.548;2023-01-16T06:38:25;0.90;;;0.80;;
32810;SDS011;65470;47.324;8.548;2023-01-16T06:40:51;2.53;;;1.05;;
32810;SDS011;65470;47.324;8.548;2023-01-16T06:43:24;1.45;;;0.90;;
32810;SDS011;65470;47.324;8.548;2023-01-16T06:45:51;0.85;;;0.70;;
32810;SDS011;65470;47.324;8.548;2023-01-16T06:48:18;1.20;;;0.75;;
32810;SDS011;65470;47.324;8.548;2023-01-16T06:50:44;0.68;;;0.68;;
32810;SDS011;65470;47.324;8.548;2023-01-16T06:53:10;1.80;;;0.85;;
32810;SDS011;65470;47.324;8.548;2023-01-16T06:55:36;0.95;;;0.82;;
32810;SDS011;65470;47.324;8.548;2023-01-16T06:58:02;0.90;;;0.80;;
32810;SDS011;65470;47.324;8.548;2023-01-16T07:00:27;1.02;;;0.90;;
32810;SDS011;65470;47.324;8.548;2023-01-16T07:02:54;2.83;;;0.90;;
32810;SDS011;65470;47.324;8.548;2023-01-16T07:05:21;4.28;;;1.17;;
32810;SDS011;65470;47.324;8.548;2023-01-16T07:07:51;1.17;;;0.80;;
32810;SDS011;65470;47.324;8.548;2023-01-16T07:10:17;1.67;;;1.10;;
32810;SDS011;65470;47.324;8.548;2023-01-16T07:12:45;3.50;;;1.10;;
32810;SDS011;65470;47.324;8.548;2023-01-16T07:15:14;0.90;;;0.88;;
32810;SDS011;65470;47.324;8.548;2023-01-16T07:17:59;1.45;;;0.90;;
32810;SDS011;65470;47.324;8.548;2023-01-16T07:20:44;4.97;;;1.13;;
32810;SDS011;65470;47.324;8.548;2023-01-16T07:23:35;2.00;;;1.25;;
32810;SDS011;65470;47.324;8.548;2023-01-16T07:26:03;1.48;;;1.00;;
32810;SDS011;65470;47.324;8.548;2023-01-16T07:28:31;1.88;;;1.00;;
32810;SDS011;65470;47.324;8.548;2023-01-16T07:30:57;1.58;;;1.08;;
32810;SDS011;65470;47.324;8.548;2023-01-16T07:33:23;0.88;;;0.88;;
32810;SDS011;65470;47.324;8.548;2023-01-16T07:35:49;1.27;;;1.00;;
32810;SDS011;65470;47.324;8.548;2023-01-16T07:38:15;0.95;;;0.82;;
32810;SDS011;65470;47.324;8.548;2023-01-16T07:40:40;1.60;;;1.20;;
32810;SDS011;65470;47.324;8.548;2023-01-16T07:43:06;3.42;;;0.90;;
32810;SDS011;65470;47.324;8.548;2023-01-16T07:45:32;2.10;;;1.23;;
32810;SDS011;65470;47.324;8.548;2023-01-16T07:47:58;8.07;;;1.10;;
32810;SDS011;65470;47.324;8.548;2023-01-16T07:50:25;1.20;;;1.10;;
32810;SDS011;65470;47.324;8.548;2023-01-16T07:52:51;1.90;;;1.23;;
32810;SDS011;65470;47.324;8.548;2023-01-16T07:55:17;1.80;;;1.00;;
32810;SDS011;65470;47.324;8.548;2023-01-16T07:57:42;1.60;;;1.10;;
32810;SDS011;65470;47.324;8.548;2023-01-16T08:00:09;1.10;;;1.00;;
32810;SDS011;65470;47.324;8.548;2023-01-16T08:02:36;1.40;;;1.30;;
32810;SDS011;65470;47.324;8.548;2023-01-16T08:05:02;2.70;;;1.20;;
32810;SDS011;65470;47.324;8.548;2023-01-16T08:07:28;4.30;;;1.60;;
32810;SDS011;65470;47.324;8.548;2023-01-16T08:09:54;1.80;;;1.42;;
32810;SDS011;65470;47.324;8.548;2023-01-16T08:12:20;4.25;;;1.63;;
32810;SDS011;65470;47.324;8.548;2023-01-16T08:14:45;1.85;;;1.38;;
32810;SDS011;65470;47.324;8.548;2023-01-16T08:17:11;2.22;;;1.52;;
32810;SDS011;65470;47.324;8.548;2023-01-16T08:19:37;7.05;;;2.88;;
32810;SDS011;65470;47.324;8.548;2023-01-16T08:22:02;5.70;;;2.42;;
32810;SDS011;65470;47.324;8.548;2023-01-16T08:24:28;5.18;;;1.60;;
32810;SDS011;65470;47.324;8.548;2023-01-16T08:26:54;7.20;;;2.00;;
32810;SDS011;65470;47.324;8.548;2023-01-16T08:29:21;17.27;;;3.72;;
32810;SDS011;65470;47.324;8.548;2023-01-16T08:31:47;14.32;;;3.90;;
32810;SDS011;65470;47.324;8.548;2023-01-16T08:34:13;17.73;;;3.17;;
32810;SDS011;65470;47.324;8.548;2023-01-16T08:36:39;7.30;;;2.92;;
32810;SDS011;65470;47.324;8.548;2023-01-16T08:39:05;20.52;;;5.40;;
32810;SDS011;65470;47.324;8.548;2023-01-16T08:41:31;6.60;;;1.85;;
32810;SDS011;65470;47.324;8.548;2023-01-16T08:44:15;21.45;;;4.60;;
32810;SDS011;65470;47.324;8.548;2023-01-16T08:47:00;7.65;;;2.28;;
32810;SDS011;65470;47.324;8.548;2023-01-16T08:49:47;10.02;;;3.03;;
32810;SDS011;65470;47.324;8.548;2023-01-16T08:52:32;7.93;;;2.53;;
32810;SDS011;65470;47.324;8.548;2023-01-16T08:54:58;3.35;;;1.60;;
32810;SDS011;65470;47.324;8.548;2023-01-16T08:57:25;6.18;;;1.70;;
32810;SDS011;65470;47.324;8.548;2023-01-16T08:59:52;5.18;;;1.65;;
32810;SDS011;65470;47.324;8.548;2023-01-16T09:02:19;4.97;;;1.92;;
32810;SDS011;65470;47.324;8.548;2023-01-16T09:04:45;3.45;;;1.30;;
32810;SDS011;65470;47.324;8.548;2023-01-16T09:07:12;2.92;;;1.35;;
32810;SDS011;65470;47.324;8.548;2023-01-16T09:09:38;11.40;;;1.85;;
32810;SDS011;65470;47.324;8.548;2023-01-16T09:12:07;9.07;;;2.15;;
32810;SDS011;65470;47.324;8.548;2023-01-16T09:14:53;10.32;;;2.67;;
32810;SDS011;65470;47.324;8.548;2023-01-16T09:17:20;5.20;;;2.22;;
32810;SDS011;65470;47.324;8.548;2023-01-16T09:19:46;8.35;;;2.33;;
32810;SDS011;65470;47.324;8.548;2023-01-16T09:22:12;4.35;;;1.52;;
32810;SDS011;65470;47.324;8.548;2023-01-16T09:24:37;6.18;;;1.77;;
32810;SDS011;65470;47.324;8.548;2023-01-16T09:27:04;4.43;;;1.70;;
32810;SDS011;65470;47.324;8.548;2023-01-16T09:29:30;5.57;;;1.40;;
32810;SDS011;65470;47.324;8.548;2023-01-16T09:31:56;5.18;;;2.05;;
32810;SDS011;65470;47.324;8.548;2023-01-16T09:34:23;5.60;;;2.88;;
32810;SDS011;65470;47.324;8.548;2023-01-16T09:36:49;18.63;;;3.83;;
32810;SDS011;65470;47.324;8.548;2023-01-16T09:39:15;7.75;;;2.40;;
32810;SDS011;65470;47.324;8.548;2023-01-16T09:41:48;7.45;;;2.60;;
32810;SDS011;65470;47.324;8.548;2023-01-16T09:44:59;3.35;;;1.52;;
32810;SDS011;65470;47.324;8.548;2023-01-16T09:47:36;2.58;;;1.60;;
32810;SDS011;65470;47.324;8.548;2023-01-16T09:50:23;2.63;;;1.50;;
32810;SDS011;65470;47.324;8.548;2023-01-16T09:52:51;2.20;;;1.70;;
32810;SDS011;65470;47.324;8.548;2023-01-16T09:55:40;2.30;;;1.90;;
32810;SDS011;65470;47.324;8.548;2023-01-16T09:58:27;2.63;;;2.15;;
32810;SDS011;65470;47.324;8.548;2023-01-16T10:01:00;2.35;;;1.95;;
32810;SDS011;65470;47.324;8.548;2023-01-16T10:03:27;3.22;;;1.70;;
32810;SDS011;65470;47.324;8.548;2023-01-16T10:09:02;6.25;;;2.28;;
32810;SDS011;65470;47.324;8.548;2023-01-16T10:11:34;6.57;;;2.40;;
32810;SDS011;65470;47.324;8.548;2023-01-16T10:17:10;3.15;;;2.13;;
32810;SDS011;65470;47.324;8.548;2023-01-16T10:25:19;4.45;;;2.47;;
32810;SDS011;65470;47.324;8.548;2023-01-16T10:27:54;3.58;;;1.88;;
32810;SDS011;65470;47.324;8.548;2023-01-16T10:30:29;2.97;;;2.05;;
32810;SDS011;65470;47.324;8.548;2023-01-16T10:36:05;4.30;;;1.95;;
32810;SDS011;65470;47.324;8.548;2023-01-16T10:38:40;4.28;;;2.15;;
32810;SDS011;65470;47.324;8.548;2023-01-16T10:41:17;4.82;;;2.03;;
32810;SDS011;65470;47.324;8.548;2023-01-16T10:47:18;2.53;;;1.95;;
32810;SDS011;65470;47.324;8.548;2023-01-16T10:50:05;2.22;;;1.95;;
32810;SDS011;65470;47.324;8.548;2023-01-16T10:52:31;4.40;;;1.60;;
32810;SDS011;65470;47.324;8.548;2023-01-16T10:54:58;2.45;;;2.22;;
32810;SDS011;65470;47.324;8.548;2023-01-16T10:57:25;1.75;;;1.60;;
32810;SDS011;65470;47.324;8.548;2023-01-16T10:59:52;2.67;;;1.60;;
32810;SDS011;65470;47.324;8.548;2023-01-16T11:02:30;2.10;;;1.70;;
32810;SDS011;65470;47.324;8.548;2023-01-16T11:04:59;3.80;;;1.63;;
32810;SDS011;65470;47.324;8.548;2023-01-16T11:07:27;1.85;;;1.40;;
32810;SDS011;65470;47.324;8.548;2023-01-16T11:09:54;1.83;;;1.20;;
32810;SDS011;65470;47.324;8.548;2023-01-16T11:12:28;3.13;;;1.10;;
32810;SDS011;65470;47.324;8.548;2023-01-16T11:15:15;1.65;;;1.33;;
32810;SDS011;65470;47.324;8.548;2023-01-16T11:20:54;2.10;;;1.80;;
32810;SDS011;65470;47.324;8.548;2023-01-16T11:23:23;1.58;;;1.48;;
32810;SDS011;65470;47.324;8.548;2023-01-16T11:25:52;1.92;;;1.38;;
32810;SDS011;65470;47.324;8.548;2023-01-16T11:28:21;3.00;;;1.60;;
32810;SDS011;65470;47.324;8.548;2023-01-16T11:30:51;2.42;;;1.38;;
32810;SDS011;65470;47.324;8.548;2023-01-16T11:33:42;3.53;;;1.55;;
32810;SDS011;65470;47.324;8.548;2023-01-16T11:36:09;2.15;;;1.42;;
32810;SDS011;65470;47.324;8.548;2023-01-16T11:38:36;1.80;;;1.10;;
32810;SDS011;65470;47.324;8.548;2023-01-16T11:41:07;1.40;;;1.30;;
32810;SDS011;65470;47.324;8.548;2023-01-16T11:43:33;1.55;;;1.20;;
32810;SDS011;65470;47.324;8.548;2023-01-16T11:46:25;1.30;;;1.15;;
32810;SDS011;65470;47.324;8.548;2023-01-16T11:49:02;1.80;;;1.30;;
32810;SDS011;65470;47.324;8.548;2023-01-16T11:51:38;1.17;;;1.08;;
32810;SDS011;65470;47.324;8.548;2023-01-16T11:54:12;1.67;;;1.35;;
32810;SDS011;65470;47.324;8.548;2023-01-16T12:04:32;1.50;;;1.10;;
32810;SDS011;65470;47.324;8.548;2023-01-16T12:12:33;2.25;;;1.55;;
32810;SDS011;65470;47.324;8.548;2023-01-16T12:20:53;2.35;;;1.80;;
32810;SDS011;65470;47.324;8.548;2023-01-16T12:23:46;4.45;;;1.50;;
32810;SDS011;65470;47.324;8.548;2023-01-16T12:26:29;1.75;;;1.30;;
32810;SDS011;65470;47.324;8.548;2023-01-16T12:31:52;2.38;;;1.40;;
32810;SDS011;65470;47.324;8.548;2023-01-16T12:40:28;1.85;;;1.42;;
32810;SDS011;65470;47.324;8.548;2023-01-16T12:46:16;1.52;;;1.42;;
32810;SDS011;65470;47.324;8.548;2023-01-16T12:51:53;1.65;;;1.50;;
32810;SDS011;65470;47.324;8.548;2023-01-16T12:59:23;5.53;;;2.10;;
32810;SDS011;65470;47.324;8.548;2023-01-16T13:02:02;6.93;;;2.08;;
32810;SDS011;65470;47.324;8.548;2023-01-16T13:04:58;6.05;;;1.77;;
32810;SDS011;65470;47.324;8.548;2023-01-16T13:07:28;2.42;;;2.03;;
32810;SDS011;65470;47.324;8.548;2023-01-16T13:10:04;3.55;;;1.70;;
32810;SDS011;65470;47.324;8.548;2023-01-16T13:13:18;1.90;;;1.80;;
32810;SDS011;65470;47.324;8.548;2023-01-16T13:15:57;3.40;;;1.98;;
32810;SDS011;65470;47.324;8.548;2023-01-16T13:18:25;1.85;;;1.65;;
32810;SDS011;65470;47.324;8.548;2023-01-16T13:20:57;2.45;;;1.75;;
32810;SDS011;65470;47.324;8.548;2023-01-16T13:23:47;2.72;;;1.85;;
32810;SDS011;65470;47.324;8.548;2023-01-16T13:26:23;2.00;;;1.70;;
32810;SDS011;65470;47.324;8.548;2023-01-16T13:28:52;2.55;;;2.10;;
32810;SDS011;65470;47.324;8.548;2023-01-16T13:34:00;3.22;;;1.92;;
32810;SDS011;65470;47.324;8.548;2023-01-16T13:37:21;2.25;;;1.70;;
32810;SDS011;65470;47.324;8.548;2023-01-16T13:39:36;3.90;;;2.45;;
32810;SDS011;65470;47.324;8.548;2023-01-16T13:42:14;2.75;;;2.55;;
32810;SDS011;65470;47.324;8.548;2023-01-16T13:44:42;4.30;;;2.60;;
32810;SDS011;65470;47.324;8.548;2023-01-16T13:47:30;7.10;;;1.90;;
32810;SDS011;65470;47.324;8.548;2023-01-16T13:52:43;3.33;;;1.52;;
32810;SDS011;65470;47.324;8.548;2023-01-16T13:55:17;2.17;;;1.70;;
32810;SDS011;65470;47.324;8.548;2023-01-16T13:57:54;3.42;;;1.83;;
32810;SDS011;65470;47.324;8.548;2023-01-16T14:00:40;3.63;;;1.80;;
32810;SDS011;65470;47.324;8.548;2023-01-16T14:03:18;3.08;;;2.25;;
32810;SDS011;65470;47.324;8.548;2023-01-16T14:05:50;3.22;;;2.10;;
32810;SDS011;65470;47.324;8.548;2023-01-16T14:11:24;4.68;;;1.70;;
32810;SDS011;65470;47.324;8.548;2023-01-16T14:16:43;2.60;;;1.80;;
32810;SDS011;65470;47.324;8.548;2023-01-16T14:21:41;2.92;;;2.13;;
32810;SDS011;65470;47.324;8.548;2023-01-16T14:24:16;5.45;;;3.28;;
32810;SDS011;65470;47.324;8.548;2023-01-16T14:32:02;5.28;;;2.15;;
32810;SDS011;65470;47.324;8.548;2023-01-16T14:34:37;8.77;;;2.22;;
32810;SDS011;65470;47.324;8.548;2023-01-16T14:37:31;6.03;;;2.17;;
32810;SDS011;65470;47.324;8.548;2023-01-16T14:42:45;2.00;;;1.63;;
32810;SDS011;65470;47.324;8.548;2023-01-16T14:45:37;4.18;;;1.98;;
32810;SDS011;65470;47.324;8.548;2023-01-16T14:56:39;0.75;;;0.75;;
32810;SDS011;65470;47.324;8.548;2023-01-16T15:01:47;3.58;;;0.82;;
32810;SDS011;65470;47.324;8.548;2023-01-16T15:04:39;0.90;;;0.90;;
32810;SDS011;65470;47.324;8.548;2023-01-16T15:07:16;2.72;;;1.20;;
32810;SDS011;65470;47.324;8.548;2023-01-16T15:09:46;1.42;;;1.08;;
32810;SDS011;65470;47.324;8.548;2023-01-16T15:12:12;4.40;;;1.58;;
32810;SDS011;65470;47.324;8.548;2023-01-16T15:14:52;1.77;;;1.50;;
32810;SDS011;65470;47.324;8.548;2023-01-16T15:17:30;2.40;;;0.82;;
32810;SDS011;65470;47.324;8.548;2023-01-16T15:20:25;2.67;;;1.30;;
32810;SDS011;65470;47.324;8.548;2023-01-16T15:23:27;1.85;;;0.88;;
32810;SDS011;65470;47.324;8.548;2023-01-16T15:31:17;1.17;;;0.80;;
32810;SDS011;65470;47.324;8.548;2023-01-16T15:33:56;1.73;;;0.70;;
32810;SDS011;65470;47.324;8.548;2023-01-16T15:39:20;0.98;;;0.88;;
32810;SDS011;65470;47.324;8.548;2023-01-16T15:42:12;0.88;;;0.88;;
32810;SDS011;65470;47.324;8.548;2023-01-16T15:44:59;3.20;;;1.75;;
32810;SDS011;65470;47.324;8.548;2023-01-16T15:47:48;0.98;;;0.60;;
32810;SDS011;65470;47.324;8.548;2023-01-16T15:53:03;2.30;;;0.60;;
32810;SDS011;65470;47.324;8.548;2023-01-16T15:55:30;0.40;;;0.40;;
32810;SDS011;65470;47.324;8.548;2023-01-16T15:58:03;0.85;;;0.70;;
32810;SDS011;65470;47.324;8.548;2023-01-16T16:00:33;0.40;;;0.40;;
32810;SDS011;65470;47.324;8.548;2023-01-16T16:03:04;0.50;;;0.50;;
32810;SDS011;65470;47.324;8.548;2023-01-16T16:05:39;0.40;;;0.40;;
32810;SDS011;65470;47.324;8.548;2023-01-16T16:08:09;1.75;;;0.40;;
32810;SDS011;65470;47.324;8.548;2023-01-16T16:10:39;0.40;;;0.40;;
32810;SDS011;65470;47.324;8.548;2023-01-16T16:13:25;0.50;;;0.50;;
32810;SDS011;65470;47.324;8.548;2023-01-16T16:15:59;5.68;;;0.40;;
32810;SDS011;65470;47.324;8.548;2023-01-16T16:18:51;0.45;;;0.40;;
32810;SDS011;65470;47.324;8.548;2023-01-16T16:21:22;2.80;;;0.60;;
32810;SDS011;65470;47.324;8.548;2023-01-16T16:23:57;0.47;;;0.43;;
32810;SDS011;65470;47.324;8.548;2023-01-16T16:26:28;0.50;;;0.50;;
32810;SDS011;65470;47.324;8.548;2023-01-16T16:28:59;0.40;;;0.40;;
32810;SDS011;65470;47.324;8.548;2023-01-16T16:31:28;2.15;;;0.70;;
32810;SDS011;65470;47.324;8.548;2023-01-16T16:34:02;1.95;;;0.50;;
32810;SDS011;65470;47.324;8.548;2023-01-16T16:36:34;0.52;;;0.50;;
32810;SDS011;65470;47.324;8.548;2023-01-16T16:39:05;0.65;;;0.47;;
32810;SDS011;65470;47.324;8.548;2023-01-16T16:41:50;0.70;;;0.70;;
32810;SDS011;65470;47.324;8.548;2023-01-16T16:44:35;0.63;;;0.50;;
32810;SDS011;65470;47.324;8.548;2023-01-16T16:47:09;0.47;;;0.40;;
32810;SDS011;65470;47.324;8.548;2023-01-16T16:49:39;0.93;;;0.60;;
32810;SDS011;65470;47.324;8.548;2023-01-16T16:54:58;0.65;;;0.50;;
32810;SDS011;65470;47.324;8.548;2023-01-16T16:57:25;0.63;;;0.60;;
32810;SDS011;65470;47.324;8.548;2023-01-16T16:59:53;0.57;;;0.50;;
32810;SDS011;65470;47.324;8.548;2023-01-16T17:02:19;0.73;;;0.60;;
32810;SDS011;65470;47.324;8.548;2023-01-16T17:04:46;0.63;;;0.60;;
32810;SDS011;65470;47.324;8.548;2023-01-16T17:07:12;0.70;;;0.55;;
32810;SDS011;65470;47.324;8.548;2023-01-16T17:09:37;1.50;;;0.50;;
32810;SDS011;65470;47.324;8.548;2023-01-16T17:12:13;2.95;;;0.60;;
32810;SDS011;65470;47.324;8.548;2023-01-16T17:14:41;0.68;;;0.60;;
32810;SDS011;65470;47.324;8.548;2023-01-16T17:17:10;0.60;;;0.60;;
32810;SDS011;65470;47.324;8.548;2023-01-16T17:19:38;0.50;;;0.50;;
32810;SDS011;65470;47.324;8.548;2023-01-16T17:22:04;0.52;;;0.50;;
32810;SDS011;65470;47.324;8.548;2023-01-16T17:24:30;0.52;;;0.50;;
32810;SDS011;65470;47.324;8.548;2023-01-16T17:26:56;0.65;;;0.60;;
32810;SDS011;65470;47.324;8.548;2023-01-16T17:29:22;1.08;;;0.70;;
32810;SDS011;65470;47.324;8.548;2023-01-16T17:31:48;0.60;;;0.60;;
32810;SDS011;65470;47.324;8.548;2023-01-16T17:34:14;1.00;;;0.70;;
32810;SDS011;65470;47.324;8.548;2023-01-16T17:36:41;1.55;;;0.65;;
32810;SDS011;65470;47.324;8.548;2023-01-16T17:39:07;2.72;;;0.80;;